createdAt,value
2023-01-17T00:00:23.060Z,41.50
2023-01-17T00:02:50.570Z,37.30
2023-01-17T00:05:24.699Z,39.22
2023-01-17T00:07:54.281Z,40.17
2023-01-17T00:10:29.524Z,40.05
2023-01-17T00:13:01.307Z,41.55
2023-01-17T00:15:41.083Z,41.05
2023-01-17T00:18:13.974Z,38.88
2023-01-17T00:20:56.636Z,37.10
2023-01-17T00:23:31.860Z,39.53
2023-01-17T00:26:03.693Z,39.67
2023-01-17T00:28:33.101Z,37.70
2023-01-17T00:31:00.120Z,38.25
2023-01-17T00:33:32.105Z,36.15
2023-01-17T00:36:04.081Z,36.90
2023-01-17T00:38:33.776Z,38.75
2023-01-17T00:41:05.898Z,37.90
2023-01-17T00:46:03.135Z,37.45
2023-01-17T00:48:30.206Z,40.63
2023-01-17T00:51:00.164Z,37.45
2023-01-17T00:53:39.285Z,39.10
2023-01-17T00:56:12.005Z,36.17
2023-01-17T00:58:39.013Z,39.20
2023-01-17T01:01:10.900Z,41.22
2023-01-17T01:03:39.928Z,41.50
2023-01-17T01:06:06.947Z,38.53
2023-01-17T01:08:38.891Z,40.45
2023-01-17T01:11:11.569Z,42.28
2023-01-17T01:13:38.229Z,40.88
2023-01-17T01:16:18.988Z,40.08
2023-01-17T01:19:11.157Z,39.63
2023-01-17T01:21:53.947Z,36.53
2023-01-17T01:24:30.995Z,41.08
2023-01-17T01:26:57.697Z,40.30
2023-01-17T01:29:32.022Z,35.83
2023-01-17T01:32:30.386Z,41.03
2023-01-17T01:34:57.127Z,39.50
2023-01-17T01:37:23.739Z,41.22
2023-01-17T01:39:50.365Z,41.50
2023-01-17T01:42:24.056Z,40.80
2023-01-17T01:45:28.909Z,40.45
2023-01-17T01:48:17.151Z,38.58
2023-01-17T01:50:48.319Z,39.42
2023-01-17T01:53:45.767Z,37.67
2023-01-17T01:56:19.355Z,39.38
2023-01-17T01:59:01.097Z,39.05
2023-01-17T02:01:33.912Z,37.05
2023-01-17T02:04:03.024Z,38.05
2023-01-17T02:06:36.796Z,39.05
2023-01-17T02:09:10.373Z,39.97
2023-01-17T02:11:53.154Z,40.08
2023-01-17T02:15:27.612Z,39.88
2023-01-17T02:18:09.628Z,38.45
2023-01-17T02:21:05.090Z,36.85
2023-01-17T02:23:40.545Z,41.92
2023-01-17T02:26:23.700Z,41.50
2023-01-17T02:29:14.042Z,42.03
2023-01-17T02:31:52.017Z,43.30
2023-01-17T02:34:46.631Z,39.47
2023-01-17T02:37:34.982Z,41.90
2023-01-17T02:40:23.880Z,41.15
2023-01-17T02:43:01.788Z,42.33
2023-01-17T02:45:29.701Z,41.92
2023-01-17T02:48:02.079Z,39.92
2023-01-17T02:50:52.803Z,42.05
2023-01-17T02:53:54.245Z,41.70
2023-01-17T02:56:43.449Z,41.88
2023-01-17T02:59:32.157Z,40.60
2023-01-17T03:02:17.678Z,41.00
2023-01-17T03:05:00.885Z,42.90
2023-01-17T03:07:30.636Z,41.90
2023-01-17T03:10:00.973Z,40.42
2023-01-17T03:12:32.437Z,42.65
2023-01-17T03:17:36.539Z,39.75
2023-01-17T03:20:08.316Z,41.83
2023-01-17T03:22:37.203Z,41.08
2023-01-17T03:25:03.985Z,41.63
2023-01-17T03:27:30.567Z,40.03
2023-01-17T03:30:01.146Z,42.42
2023-01-17T03:32:36.528Z,39.55
2023-01-17T03:35:03.221Z,43.10
2023-01-17T03:37:29.823Z,40.80
2023-01-17T03:40:04.402Z,40.67
2023-01-17T03:42:33.735Z,41.00
2023-01-17T03:45:02.940Z,40.13
2023-01-17T03:48:00.222Z,40.72
2023-01-17T03:50:39.781Z,40.58
2023-01-17T03:53:13.423Z,43.80
2023-01-17T03:56:00.622Z,39.58
2023-01-17T03:58:37.757Z,42.00
2023-01-17T04:01:19.051Z,40.92
2023-01-17T04:03:46.227Z,42.00
2023-01-17T04:09:10.098Z,41.22
2023-01-17T04:11:39.861Z,40.75
2023-01-17T04:14:15.239Z,43.00
2023-01-17T04:16:42.018Z,41.03
2023-01-17T04:19:24.138Z,42.45
2023-01-17T04:22:05.211Z,43.63
2023-01-17T04:24:37.077Z,43.40
2023-01-17T04:27:05.304Z,42.35
2023-01-17T04:29:35.176Z,42.30
2023-01-17T04:32:01.913Z,43.45
2023-01-17T04:34:28.555Z,45.65
2023-01-17T04:36:55.259Z,42.13
2023-01-17T04:39:21.905Z,43.30
2023-01-17T04:44:36.681Z,44.22
2023-01-17T04:47:13.622Z,42.50
2023-01-17T04:49:40.223Z,44.28
2023-01-17T04:52:33.320Z,45.33
2023-01-17T04:55:00.173Z,43.38
2023-01-17T04:57:35.728Z,42.30
2023-01-17T05:00:02.430Z,43.95
2023-01-17T05:02:43.753Z,44.80
2023-01-17T05:05:16.707Z,43.70
2023-01-17T05:07:43.387Z,42.97
2023-01-17T05:10:22.536Z,44.25
2023-01-17T05:13:02.747Z,42.45
2023-01-17T05:15:29.704Z,44.90
2023-01-17T05:17:56.812Z,44.65
2023-01-17T05:20:26.932Z,43.63
2023-01-17T05:23:06.262Z,45.65
2023-01-17T05:25:33.662Z,42.85
2023-01-17T05:30:41.336Z,45.90
2023-01-17T05:33:16.896Z,43.95
2023-01-17T05:35:45.995Z,44.83
2023-01-17T05:38:23.093Z,43.03
2023-01-17T05:43:30.217Z,43.85
2023-01-17T05:46:05.597Z,45.05
2023-01-17T05:48:46.635Z,47.20
2023-01-17T05:51:26.839Z,45.17
2023-01-17T05:54:05.229Z,44.00
2023-01-17T05:56:34.673Z,43.25
2023-01-17T05:59:01.362Z,42.88
2023-01-17T06:01:32.272Z,42.33
2023-01-17T06:03:59.633Z,41.15
2023-01-17T06:06:32.118Z,42.30
2023-01-17T06:09:01.728Z,40.65
2023-01-17T06:11:28.366Z,41.45
2023-01-17T06:13:55.149Z,39.60
2023-01-17T06:16:21.827Z,42.03
2023-01-17T06:18:54.784Z,42.50
2023-01-17T06:21:29.659Z,43.25
2023-01-17T06:24:06.072Z,42.03
2023-01-17T06:26:32.634Z,41.25
2023-01-17T06:29:01.478Z,43.38
2023-01-17T06:31:31.125Z,43.60
2023-01-17T06:34:01.365Z,41.75
2023-01-17T06:36:27.928Z,41.00
2023-01-17T06:39:00.166Z,43.25
2023-01-17T06:41:26.735Z,44.83
2023-01-17T06:43:53.928Z,45.17
2023-01-17T06:46:21.002Z,47.55
2023-01-17T06:48:47.572Z,44.60
2023-01-17T06:51:17.233Z,44.10
2023-01-17T06:53:50.079Z,45.50
2023-01-17T06:56:30.365Z,43.13
2023-01-17T06:58:56.956Z,41.13
2023-01-17T07:01:24.775Z,43.67
2023-01-17T07:03:54.105Z,43.40
2023-01-17T07:06:24.685Z,43.15
2023-01-17T07:08:51.252Z,42.17
2023-01-17T07:11:17.829Z,44.53
2023-01-17T07:13:44.359Z,43.85
2023-01-17T07:16:10.940Z,43.13
2023-01-17T07:18:37.572Z,45.67
2023-01-17T07:21:04.292Z,43.70
2023-01-17T07:23:36.463Z,46.03
2023-01-17T07:26:03.004Z,45.05
2023-01-17T07:28:35.249Z,45.88
2023-01-17T07:31:11.478Z,44.55
2023-01-17T07:33:38.095Z,46.33
2023-01-17T07:36:09.067Z,44.95
2023-01-17T07:38:35.698Z,46.05
2023-01-17T07:41:02.487Z,45.13
2023-01-17T07:43:31.657Z,43.50
2023-01-17T07:46:02.183Z,48.60
2023-01-17T07:48:28.976Z,45.33
2023-01-17T07:51:03.319Z,49.70
2023-01-17T07:53:30.991Z,46.08
2023-01-17T07:56:17.886Z,47.17
2023-01-17T07:58:44.543Z,46.70
2023-01-17T08:01:19.144Z,49.65
2023-01-17T08:03:50.077Z,51.85
2023-01-17T08:06:26.139Z,48.60
2023-01-17T08:08:55.332Z,52.65
2023-01-17T08:11:21.968Z,50.33
2023-01-17T08:13:53.502Z,48.83
2023-01-17T08:16:25.325Z,48.55
2023-01-17T08:18:52.600Z,50.10
2023-01-17T08:21:23.119Z,51.63
2023-01-17T08:23:52.945Z,53.20
2023-01-17T08:26:25.200Z,49.83
2023-01-17T08:28:56.163Z,50.95
2023-01-17T08:31:23.474Z,49.75
2023-01-17T08:33:50.070Z,49.03
2023-01-17T08:36:22.804Z,48.10
2023-01-17T08:38:52.567Z,49.95
2023-01-17T08:41:45.754Z,49.85
2023-01-17T08:44:23.454Z,50.45
2023-01-17T08:49:51.342Z,53.60
2023-01-17T08:55:11.970Z,51.45
2023-01-17T08:58:03.728Z,50.97
2023-01-17T09:00:31.008Z,51.53
2023-01-17T09:03:20.025Z,54.80
2023-01-17T09:05:54.874Z,50.53
2023-01-17T09:08:30.573Z,52.03
2023-01-17T09:10:57.617Z,50.15
2023-01-17T09:13:33.175Z,50.10
2023-01-17T09:16:07.098Z,53.20
2023-01-17T09:18:42.464Z,49.15
2023-01-17T09:21:14.435Z,51.45
2023-01-17T09:23:49.296Z,51.15
2023-01-17T09:26:28.369Z,53.35
2023-01-17T09:28:58.315Z,52.95
2023-01-17T09:31:25.188Z,54.90
2023-01-17T09:33:56.789Z,54.15
2023-01-17T09:36:24.411Z,59.35
2023-01-17T09:39:09.571Z,59.80
2023-01-17T09:41:49.840Z,58.40
2023-01-17T09:44:22.212Z,60.80
2023-01-17T09:46:55.624Z,53.47
2023-01-17T09:49:50.065Z,58.97
2023-01-17T09:52:19.798Z,55.42
2023-01-17T09:54:51.168Z,53.55
2023-01-17T09:58:04.290Z,53.28
2023-01-17T10:01:09.585Z,48.45
2023-01-17T10:07:02.973Z,44.28
2023-01-17T10:10:03.191Z,41.25
2023-01-17T10:12:59.286Z,41.55
2023-01-17T10:15:54.453Z,40.88
2023-01-17T10:18:33.031Z,40.17
2023-01-17T10:21:46.625Z,41.55
2023-01-17T10:24:52.998Z,40.85
2023-01-17T10:27:26.086Z,39.40
2023-01-17T10:29:55.679Z,35.58
2023-01-17T10:32:37.042Z,36.92
2023-01-17T10:35:20.901Z,38.37
2023-01-17T10:37:49.997Z,36.15
2023-01-17T10:40:23.991Z,37.30
2023-01-17T10:43:30.620Z,36.83
2023-01-17T10:46:11.481Z,36.30
2023-01-17T10:48:58.853Z,37.00
2023-01-17T10:51:49.599Z,37.22
2023-01-17T10:54:53.255Z,37.67
2023-01-17T10:57:25.141Z,35.47
2023-01-17T11:00:03.484Z,33.95
2023-01-17T11:02:47.245Z,35.38
2023-01-17T11:05:30.138Z,30.98
2023-01-17T11:08:08.699Z,33.15
2023-01-17T11:11:05.010Z,33.65
2023-01-17T11:13:36.106Z,33.78
2023-01-17T11:16:10.837Z,34.92
2023-01-17T11:18:46.577Z,35.67
2023-01-17T11:21:19.291Z,35.10
2023-01-17T11:23:55.200Z,32.95
2023-01-17T11:26:43.719Z,34.83
2023-01-17T11:29:51.767Z,37.00
2023-01-17T11:32:29.283Z,37.83
2023-01-17T11:35:22.289Z,39.45
2023-01-17T11:37:51.877Z,38.30
2023-01-17T11:40:26.837Z,30.27
2023-01-17T11:43:18.433Z,36.50
2023-01-17T11:45:46.367Z,36.80
2023-01-17T11:48:17.754Z,36.20
2023-01-17T11:51:01.142Z,39.30
2023-01-17T11:53:37.765Z,30.60
2023-01-17T11:56:21.845Z,33.33
2023-01-17T11:59:11.642Z,31.80
2023-01-17T12:01:55.673Z,31.88
2023-01-17T12:05:17.029Z,33.13
2023-01-17T12:08:07.044Z,30.40
2023-01-17T12:10:50.765Z,31.45
2023-01-17T12:13:59.531Z,29.90
2023-01-17T12:20:15.202Z,28.13
2023-01-17T12:23:28.337Z,28.17
2023-01-17T12:26:28.685Z,29.60
2023-01-17T12:29:25.944Z,29.40
2023-01-17T12:32:25.400Z,26.70
2023-01-17T12:35:07.124Z,26.13
2023-01-17T12:38:08.367Z,26.88
2023-01-17T12:40:43.681Z,23.42
2023-01-17T12:43:40.045Z,23.55
2023-01-17T12:46:17.187Z,23.25
2023-01-17T12:48:44.558Z,21.40
2023-01-17T12:51:34.422Z,21.75
2023-01-17T12:54:23.921Z,20.20
2023-01-17T12:57:23.432Z,18.40
2023-01-17T13:00:02.727Z,18.52
2023-01-17T13:02:53.505Z,15.70
2023-01-17T13:05:28.969Z,17.40
2023-01-17T13:08:01.406Z,16.60
2023-01-17T13:10:37.698Z,14.50
2023-01-17T13:13:24.378Z,13.90
2023-01-17T13:16:29.523Z,14.48
2023-01-17T13:18:58.383Z,13.20
2023-01-17T13:21:33.262Z,11.77
2023-01-17T13:23:59.818Z,12.10
2023-01-17T13:26:29.195Z,11.18
2023-01-17T13:29:13.845Z,10.15
2023-01-17T13:32:05.501Z,10.48
2023-01-17T13:34:59.765Z,10.40
2023-01-17T13:38:01.897Z,9.45
2023-01-17T13:40:58.333Z,9.32
2023-01-17T13:43:49.080Z,8.93
2023-01-17T13:46:16.739Z,8.43
2023-01-17T13:48:47.192Z,9.00
2023-01-17T13:52:02.788Z,9.15
2023-01-17T13:54:39.406Z,8.75
2023-01-17T13:57:24.271Z,9.85
2023-01-17T13:59:51.203Z,9.98
2023-01-17T14:02:33.065Z,10.38
2023-01-17T14:05:09.961Z,8.77
2023-01-17T14:08:04.160Z,8.65
2023-01-17T14:10:41.676Z,8.75
2023-01-17T14:13:34.477Z,7.90
2023-01-17T14:16:05.559Z,9.13
2023-01-17T14:18:33.500Z,8.48
2023-01-17T14:21:33.894Z,7.75
2023-01-17T14:24:20.188Z,7.63
2023-01-17T14:26:55.578Z,7.53
2023-01-17T14:29:44.497Z,7.63
2023-01-17T14:32:25.807Z,6.50
2023-01-17T14:34:53.383Z,7.00
2023-01-17T14:37:50.994Z,6.90
2023-01-17T14:40:26.926Z,6.90
2023-01-17T14:43:22.728Z,7.10
2023-01-17T14:46:14.527Z,7.10
2023-01-17T14:48:57.971Z,6.13
2023-01-17T14:51:31.861Z,7.05
2023-01-17T14:54:15.728Z,7.68
2023-01-17T14:56:52.909Z,7.40
2023-01-17T14:59:21.564Z,6.32
2023-01-17T15:02:08.246Z,7.75
2023-01-17T15:04:38.200Z,7.72
2023-01-17T15:07:04.917Z,8.95
2023-01-17T15:09:47.941Z,8.75
2023-01-17T15:12:17.214Z,8.63
2023-01-17T15:14:48.629Z,8.52
2023-01-17T15:17:36.226Z,7.80
2023-01-17T15:20:19.311Z,8.88
2023-01-17T15:22:46.154Z,9.10
2023-01-17T15:25:19.993Z,9.65
2023-01-17T15:27:49.688Z,10.27
2023-01-17T15:30:18.651Z,8.30
2023-01-17T15:32:48.470Z,10.93
2023-01-17T15:35:21.723Z,10.05
2023-01-17T15:37:58.538Z,11.40
2023-01-17T15:40:28.828Z,10.88
2023-01-17T15:42:59.664Z,8.75
2023-01-17T15:45:31.184Z,13.02
2023-01-17T15:48:35.183Z,13.73
2023-01-17T15:51:01.761Z,13.48
2023-01-17T15:53:32.504Z,13.65
2023-01-17T15:56:02.774Z,15.60
2023-01-17T15:58:30.274Z,15.68
2023-01-17T16:00:57.499Z,14.25
2023-01-17T16:04:01.437Z,16.83
2023-01-17T16:06:41.684Z,15.73
2023-01-17T16:09:40.593Z,15.98
2023-01-17T16:12:10.935Z,13.88
2023-01-17T16:15:02.434Z,14.38
2023-01-17T16:17:27.690Z,16.23
2023-01-17T16:19:54.445Z,16.85
2023-01-17T16:22:21.114Z,15.93
2023-01-17T16:24:47.876Z,13.63
2023-01-17T16:27:51.992Z,14.90
2023-01-17T16:30:37.265Z,13.95
2023-01-17T16:33:04.231Z,16.98
2023-01-17T16:35:39.639Z,12.25
2023-01-17T16:38:10.576Z,13.68
2023-01-17T16:40:44.729Z,12.85
2023-01-17T16:43:12.601Z,12.50
2023-01-17T16:45:46.935Z,12.75
2023-01-17T16:48:19.019Z,13.60
2023-01-17T16:50:56.968Z,12.73
2023-01-17T16:53:30.869Z,13.02
2023-01-17T16:55:59.319Z,13.85
2023-01-17T16:58:28.139Z,12.35
2023-01-17T17:01:08.954Z,12.00
2023-01-17T17:03:35.591Z,13.65
2023-01-17T17:06:11.729Z,13.98
2023-01-17T17:08:38.409Z,14.43
2023-01-17T17:11:10.026Z,15.43
2023-01-17T17:13:36.851Z,14.73
2023-01-17T17:19:14.044Z,13.13
2023-01-17T17:21:40.627Z,14.40
2023-01-17T17:24:07.354Z,16.05
2023-01-17T17:26:36.065Z,15.88
2023-01-17T17:29:04.076Z,12.38
2023-01-17T17:31:30.650Z,12.52
2023-01-17T17:33:59.016Z,16.08
2023-01-17T17:36:25.645Z,18.35
2023-01-17T17:38:58.220Z,17.40
2023-01-17T17:41:33.834Z,17.60
2023-01-17T17:44:10.030Z,13.77
2023-01-17T17:46:36.833Z,15.05
2023-01-17T17:49:04.327Z,15.32
2023-01-17T17:51:33.554Z,15.48
2023-01-17T17:54:08.252Z,15.95
2023-01-17T17:56:43.224Z,16.65
2023-01-17T17:59:14.455Z,13.95
2023-01-17T18:01:55.684Z,18.93
2023-01-17T18:04:22.931Z,17.25
2023-01-17T18:06:58.920Z,16.73
2023-01-17T18:09:31.720Z,17.50
2023-01-17T18:11:58.316Z,17.48
2023-01-17T18:14:24.878Z,19.33
2023-01-17T18:17:04.859Z,18.23
2023-01-17T18:22:22.797Z,19.67
2023-01-17T18:24:56.173Z,19.70
2023-01-17T18:27:33.461Z,18.48
2023-01-17T18:30:00.043Z,17.58
2023-01-17T18:35:35.659Z,15.52
2023-01-17T18:38:15.475Z,16.17
2023-01-17T18:41:00.501Z,17.27
2023-01-17T18:43:35.224Z,16.25
2023-01-17T18:46:13.840Z,14.93
2023-01-17T18:48:43.729Z,17.92
2023-01-17T18:51:17.994Z,17.52
2023-01-17T18:53:48.630Z,18.27
2023-01-17T18:56:18.742Z,18.10
2023-01-17T18:58:47.483Z,17.17
2023-01-17T19:01:26.164Z,19.00
2023-01-17T19:03:55.213Z,18.65
2023-01-17T19:06:25.051Z,18.50
2023-01-17T19:08:52.076Z,18.58
2023-01-17T19:11:36.145Z,18.48
2023-01-17T19:14:18.947Z,16.88
2023-01-17T19:16:56.333Z,18.13
2023-01-17T19:19:23.244Z,14.70
2023-01-17T19:21:52.632Z,19.13
2023-01-17T19:24:19.315Z,18.08
2023-01-17T19:26:48.217Z,21.00
2023-01-17T19:29:14.813Z,16.02
2023-01-17T19:31:50.732Z,19.58
2023-01-17T19:34:17.468Z,17.83
2023-01-17T19:36:50.140Z,15.45
2023-01-17T19:39:19.522Z,20.15
2023-01-17T19:41:46.054Z,20.13
2023-01-17T19:44:31.677Z,19.73
2023-01-17T19:47:28.438Z,17.45
2023-01-17T19:49:58.216Z,19.20
2023-01-17T19:52:38.422Z,17.45
2023-01-17T19:55:06.669Z,16.73
2023-01-17T19:57:56.337Z,16.70
2023-01-17T20:00:46.187Z,16.65
2023-01-17T20:06:09.543Z,19.23
2023-01-17T20:08:41.396Z,19.55
2023-01-17T20:11:19.279Z,20.45
2023-01-17T20:13:54.373Z,18.30
2023-01-17T20:16:22.335Z,18.20
2023-01-17T20:18:49.365Z,18.48
2023-01-17T20:21:19.158Z,20.48
2023-01-17T20:23:47.047Z,18.48
2023-01-17T20:26:16.954Z,19.48
2023-01-17T20:28:47.255Z,20.00
2023-01-17T20:31:38.916Z,19.02
2023-01-17T20:37:11.263Z,16.17
2023-01-17T20:39:46.848Z,17.55
2023-01-17T20:42:20.331Z,19.00
2023-01-17T20:44:51.627Z,19.50
2023-01-17T20:47:26.897Z,21.52
2023-01-17T20:52:49.961Z,19.75
2023-01-17T20:55:16.577Z,21.23
2023-01-17T20:57:48.294Z,21.27
2023-01-17T21:00:15.375Z,21.23
2023-01-17T21:02:41.977Z,21.05
2023-01-17T21:05:08.842Z,20.45
2023-01-17T21:07:35.435Z,21.33
2023-01-17T21:10:01.982Z,23.60
2023-01-17T21:12:28.554Z,22.33
2023-01-17T21:14:55.104Z,20.90
2023-01-17T21:17:21.679Z,24.80
2023-01-17T21:19:58.357Z,24.38
2023-01-17T21:22:25.025Z,23.92
2023-01-17T21:25:02.866Z,23.92
2023-01-17T21:27:31.912Z,23.83
2023-01-17T21:30:06.180Z,21.50
2023-01-17T21:32:32.740Z,24.35
2023-01-17T21:35:07.210Z,24.45
2023-01-17T21:37:36.560Z,26.70
2023-01-17T21:40:05.254Z,26.88
2023-01-17T21:42:39.394Z,28.27
2023-01-17T21:45:07.584Z,28.92
2023-01-17T21:47:34.098Z,27.75
2023-01-17T21:50:05.487Z,29.85
2023-01-17T21:52:37.510Z,28.67
2023-01-17T21:55:04.257Z,22.88
2023-01-17T21:57:30.887Z,26.52
2023-01-17T21:59:57.514Z,27.92
2023-01-17T22:02:24.292Z,30.23
2023-01-17T22:04:50.925Z,28.98
2023-01-17T22:07:17.442Z,26.77
2023-01-17T22:09:43.985Z,29.95
2023-01-17T22:12:13.348Z,26.05
2023-01-17T22:14:42.010Z,29.58
2023-01-17T22:17:19.418Z,28.80
2023-01-17T22:19:48.952Z,27.90
2023-01-17T22:22:28.079Z,30.02
2023-01-17T22:25:01.716Z,30.50
2023-01-17T22:27:29.353Z,29.70
2023-01-17T22:30:14.307Z,26.95
2023-01-17T22:32:41.076Z,29.85
2023-01-17T22:35:14.639Z,31.55
2023-01-17T22:37:56.451Z,29.92
2023-01-17T22:40:50.545Z,31.40
2023-01-17T22:43:33.527Z,25.17
2023-01-17T22:46:33.137Z,28.77
2023-01-17T22:49:17.100Z,27.63
2023-01-17T22:51:43.878Z,29.27
2023-01-17T22:54:28.406Z,30.30
2023-01-17T22:57:12.873Z,31.02
2023-01-17T23:00:08.404Z,31.02
2023-01-17T23:02:52.958Z,31.08
2023-01-17T23:05:38.103Z,31.70
2023-01-17T23:08:09.494Z,31.08
2023-01-17T23:10:44.447Z,30.10
2023-01-17T23:13:12.326Z,31.50
2023-01-17T23:15:43.163Z,31.35
2023-01-17T23:18:10.102Z,27.60
2023-01-17T23:20:36.651Z,31.20
2023-01-17T23:23:26.714Z,29.52
2023-01-17T23:26:01.645Z,31.25
2023-01-17T23:28:47.482Z,31.17
2023-01-17T23:31:14.242Z,30.33
2023-01-17T23:33:43.334Z,30.83
2023-01-17T23:36:11.862Z,29.55
2023-01-17T23:38:42.984Z,32.22
2023-01-17T23:41:21.445Z,31.08
2023-01-17T23:44:16.355Z,31.33
2023-01-17T23:46:52.461Z,28.85
2023-01-17T23:49:21.874Z,30.48
2023-01-17T23:52:03.932Z,32.67
2023-01-17T23:54:47.830Z,31.80
